createdAt,value
2019-05-14T00:02:22.717Z,2.90
2019-05-14T00:04:51.461Z,2.80
2019-05-14T00:07:22.253Z,2.80
2019-05-14T00:09:51.905Z,2.70
2019-05-14T00:12:22.322Z,2.70
2019-05-14T00:14:51.628Z,2.60
2019-05-14T00:17:21.438Z,2.60
2019-05-14T00:20:05.520Z,2.50
2019-05-14T00:22:21.837Z,2.50
2019-05-14T00:24:52.041Z,2.40
2019-05-14T00:27:21.841Z,2.40
2019-05-14T00:29:51.799Z,2.40
2019-05-14T00:32:21.631Z,2.40
2019-05-14T00:34:51.613Z,2.40
2019-05-14T00:37:21.719Z,2.60
2019-05-14T00:39:52.139Z,2.60
2019-05-14T00:42:21.608Z,2.70
2019-05-14T00:44:56.899Z,2.70
2019-05-14T00:47:21.717Z,2.70
2019-05-14T00:49:51.675Z,2.80
2019-05-14T00:52:22.271Z,2.90
2019-05-14T00:54:52.174Z,2.90
2019-05-14T00:57:21.722Z,2.90
2019-05-14T00:59:52.104Z,2.90
2019-05-14T01:02:21.797Z,2.80
2019-05-14T01:04:51.542Z,2.80
2019-05-14T01:07:21.174Z,2.70
2019-05-14T01:09:52.245Z,2.70
2019-05-14T01:12:21.405Z,2.70
2019-05-14T01:14:52.815Z,2.70
2019-05-14T01:17:22.391Z,2.80
2019-05-14T01:19:51.348Z,2.80
2019-05-14T01:22:21.283Z,2.80
2019-05-14T01:24:52.027Z,2.70
2019-05-14T01:27:21.872Z,2.70
2019-05-14T01:29:51.398Z,2.70
2019-05-14T01:32:22.075Z,2.70
2019-05-14T01:34:52.231Z,2.70
2019-05-14T01:37:21.866Z,2.70
2019-05-14T01:39:52.088Z,2.70
2019-05-14T01:42:21.648Z,2.70
2019-05-14T01:44:52.017Z,2.70
2019-05-14T01:47:21.368Z,2.80
2019-05-14T01:49:51.488Z,2.80
2019-05-14T01:52:21.771Z,2.80
2019-05-14T01:54:51.558Z,2.80
2019-05-14T01:57:21.912Z,2.80
2019-05-14T01:59:51.773Z,2.80
2019-05-14T02:02:22.037Z,2.80
2019-05-14T02:04:51.429Z,2.80
2019-05-14T02:07:22.123Z,2.80
2019-05-14T02:09:51.838Z,2.80
2019-05-14T02:12:22.412Z,2.90
2019-05-14T02:14:51.283Z,2.80
2019-05-14T02:17:21.247Z,2.80
2019-05-14T02:19:51.553Z,2.80
2019-05-14T02:22:21.666Z,2.80
2019-05-14T02:24:52.036Z,2.80
2019-05-14T02:27:21.465Z,2.80
2019-05-14T02:29:51.813Z,2.80
2019-05-14T02:32:20.305Z,2.70
2019-05-14T02:34:49.933Z,2.70
2019-05-14T02:37:19.439Z,2.80
2019-05-14T02:39:50.269Z,2.70
2019-05-14T02:42:19.630Z,2.70
2019-05-14T02:44:49.470Z,2.70
2019-05-14T02:47:19.549Z,2.70
2019-05-14T02:50:09.897Z,2.70
2019-05-14T02:52:40.158Z,2.70
2019-05-14T02:55:09.427Z,2.70
2019-05-14T02:57:39.393Z,2.60
2019-05-14T03:00:10.160Z,2.60
2019-05-14T03:02:40.292Z,2.70
2019-05-14T03:05:09.973Z,2.70
2019-05-14T03:07:39.638Z,2.60
2019-05-14T03:10:10.333Z,2.70
2019-05-14T03:12:39.814Z,2.70
2019-05-14T03:15:09.834Z,2.70
2019-05-14T03:17:40.450Z,2.60
2019-05-14T03:20:10.185Z,2.70
2019-05-14T03:22:54.826Z,2.60
2019-05-14T03:25:10.091Z,2.60
2019-05-14T03:27:40.546Z,2.60
2019-05-14T03:30:12.758Z,2.60
2019-05-14T03:32:42.250Z,2.50
2019-05-14T03:35:13.788Z,2.60
2019-05-14T03:37:40.930Z,2.60
2019-05-14T03:40:29.482Z,2.60
2019-05-14T03:42:59.809Z,2.60
2019-05-14T03:45:30.040Z,2.60
2019-05-14T03:47:59.123Z,2.60
2019-05-14T03:50:29.822Z,2.70
2019-05-14T03:52:59.489Z,2.60
2019-05-14T03:55:29.308Z,2.60
2019-05-14T03:57:59.465Z,2.50
2019-05-14T04:00:50.446Z,2.60
2019-05-14T04:03:20.143Z,2.60
2019-05-14T04:05:50.058Z,2.60
2019-05-14T04:08:21.388Z,2.60
2019-05-14T04:10:54.278Z,2.60
2019-05-14T04:13:23.855Z,2.60
2019-05-14T04:15:59.921Z,2.60
2019-05-14T04:18:29.294Z,2.60
2019-05-14T04:20:59.615Z,2.70
2019-05-14T04:23:30.072Z,2.60
2019-05-14T04:26:00.920Z,2.60
2019-05-14T04:28:32.816Z,2.60
2019-05-14T04:31:02.555Z,2.60
2019-05-14T04:33:34.253Z,2.60
2019-05-14T04:36:03.489Z,2.60
2019-05-14T04:38:32.329Z,2.70
2019-05-14T04:41:01.194Z,2.70
2019-05-14T04:43:30.397Z,2.80
2019-05-14T04:45:59.437Z,2.80
2019-05-14T04:48:37.241Z,2.90
2019-05-14T04:51:00.312Z,2.80
2019-05-14T04:53:30.941Z,2.90
2019-05-14T04:56:00.405Z,2.90
2019-05-14T04:58:29.880Z,2.90
2019-05-14T05:01:00.656Z,2.90
2019-05-14T05:03:31.500Z,2.80
2019-05-14T05:05:59.350Z,2.90
2019-05-14T05:08:30.409Z,3.00
2019-05-14T05:10:59.910Z,3.00
2019-05-14T05:13:29.404Z,3.00
2019-05-14T05:15:59.469Z,3.10
2019-05-14T05:18:29.398Z,3.20
2019-05-14T05:20:58.544Z,3.30
2019-05-14T05:23:28.213Z,3.20
2019-05-14T05:25:58.494Z,3.20
2019-05-14T05:28:28.291Z,3.20
2019-05-14T05:30:58.519Z,3.40
2019-05-14T05:33:29.334Z,3.40
2019-05-14T05:35:59.257Z,3.40
2019-05-14T05:38:29.234Z,3.40
2019-05-14T05:41:00.320Z,3.40
2019-05-14T05:43:28.674Z,3.40
2019-05-14T05:45:59.254Z,3.40
2019-05-14T05:48:28.561Z,3.40
2019-05-14T05:50:59.161Z,3.40
2019-05-14T05:53:28.693Z,3.40
2019-05-14T05:55:59.309Z,3.40
2019-05-14T05:58:29.893Z,3.40
2019-05-14T06:00:59.122Z,3.50
2019-05-14T06:03:30.165Z,3.50
2019-05-14T06:05:59.411Z,3.50
2019-05-14T06:08:28.300Z,3.60
2019-05-14T06:10:59.110Z,3.60
2019-05-14T06:13:28.691Z,3.70
2019-05-14T06:15:59.216Z,3.80
2019-05-14T06:18:28.560Z,3.80
2019-05-14T06:20:58.608Z,3.90
2019-05-14T06:23:28.521Z,4.10
2019-05-14T06:25:59.694Z,4.20
2019-05-14T06:28:32.448Z,4.10
2019-05-14T06:30:58.941Z,4.20
2019-05-14T06:33:28.688Z,4.30
2019-05-14T06:35:59.255Z,4.30
2019-05-14T06:38:29.472Z,4.40
2019-05-14T06:40:59.379Z,4.40
2019-05-14T06:43:29.107Z,4.50
2019-05-14T06:45:58.576Z,4.50
2019-05-14T06:48:34.483Z,4.50
2019-05-14T06:50:59.282Z,4.50
2019-05-14T06:53:29.058Z,4.60
2019-05-14T06:55:58.779Z,4.60
2019-05-14T06:58:29.842Z,4.60
2019-05-14T07:00:58.763Z,4.70
2019-05-14T07:03:28.149Z,4.80
2019-05-14T07:05:59.391Z,4.80
2019-05-14T07:08:28.555Z,4.80
2019-05-14T07:10:59.269Z,4.90
2019-05-14T07:13:29.180Z,4.80
2019-05-14T07:15:58.533Z,4.90
2019-05-14T07:18:30.178Z,5.00
2019-05-14T07:20:58.845Z,5.00
2019-05-14T07:23:29.024Z,5.00
2019-05-14T07:25:58.959Z,5.00
2019-05-14T07:28:28.844Z,5.10
2019-05-14T07:30:59.327Z,5.10
2019-05-14T07:33:29.267Z,5.30
2019-05-14T07:35:59.366Z,5.50
2019-05-14T07:38:28.470Z,5.40
2019-05-14T07:40:58.546Z,5.50
2019-05-14T07:43:28.802Z,5.50
2019-05-14T07:45:58.255Z,5.50
2019-05-14T07:48:28.802Z,5.40
2019-05-14T07:50:59.884Z,5.60
2019-05-14T07:53:38.080Z,5.70
2019-05-14T07:55:59.217Z,5.80
2019-05-14T07:58:28.366Z,5.80
2019-05-14T08:00:58.588Z,5.80
2019-05-14T08:03:28.584Z,5.80
2019-05-14T08:05:58.807Z,5.80
2019-05-14T08:08:29.262Z,5.70
2019-05-14T08:10:59.235Z,5.80
2019-05-14T08:13:28.458Z,5.80
2019-05-14T08:15:58.504Z,5.80
2019-05-14T08:18:29.015Z,5.80
2019-05-14T08:20:59.187Z,5.90
2019-05-14T08:23:28.757Z,6.00
2019-05-14T08:25:58.665Z,6.10
2019-05-14T08:28:29.068Z,5.80
2019-05-14T08:30:58.494Z,5.80
2019-05-14T08:33:29.056Z,5.70
2019-05-14T08:35:58.200Z,5.80
2019-05-14T08:38:28.461Z,5.60
2019-05-14T08:40:58.984Z,5.50
2019-05-14T08:43:29.194Z,5.50
2019-05-14T08:45:58.785Z,5.50
2019-05-14T08:48:29.679Z,5.50
2019-05-14T08:50:58.738Z,5.60
2019-05-14T08:53:28.833Z,5.50
2019-05-14T08:55:58.912Z,5.60
2019-05-14T08:58:30.001Z,5.70
2019-05-14T09:00:58.762Z,5.70
2019-05-14T09:03:28.787Z,5.60
2019-05-14T09:06:00.614Z,5.70
2019-05-14T09:08:28.442Z,5.80
2019-05-14T09:10:59.083Z,5.80
2019-05-14T09:13:28.994Z,5.70
2019-05-14T09:15:58.472Z,5.60
2019-05-14T09:18:29.112Z,5.70
2019-05-14T09:20:58.201Z,5.90
2019-05-14T09:23:28.636Z,5.90
2019-05-14T09:25:58.763Z,5.80
2019-05-14T09:28:28.512Z,5.80
2019-05-14T09:30:59.580Z,5.70
2019-05-14T09:33:29.590Z,5.50
2019-05-14T09:36:11.090Z,5.60
2019-05-14T09:38:29.338Z,5.70
2019-05-14T09:41:10.372Z,5.80
2019-05-14T09:43:28.731Z,5.90
2019-05-14T09:45:58.796Z,6.00
2019-05-14T09:48:28.708Z,6.00
2019-05-14T09:50:58.610Z,6.00
2019-05-14T09:53:28.895Z,6.20
2019-05-14T09:55:58.394Z,6.10
2019-05-14T09:58:28.191Z,5.90
2019-05-14T10:00:59.139Z,5.90
2019-05-14T10:03:27.675Z,5.70
2019-05-14T10:05:59.015Z,5.70
2019-05-14T10:08:28.582Z,5.80
2019-05-14T10:11:00.007Z,5.60
2019-05-14T10:13:28.228Z,5.70
2019-05-14T10:15:58.872Z,5.60
2019-05-14T10:18:28.456Z,5.50
2019-05-14T10:20:58.975Z,5.20
2019-05-14T10:23:28.363Z,5.20
2019-05-14T10:25:58.100Z,5.10
2019-05-14T10:28:28.782Z,5.20
2019-05-14T10:30:59.953Z,5.10
2019-05-14T10:33:28.756Z,5.10
2019-05-14T10:35:58.840Z,5.30
2019-05-14T10:38:29.556Z,5.30
2019-05-14T10:40:58.520Z,5.40
2019-05-14T10:43:28.842Z,5.40
2019-05-14T10:45:58.050Z,5.50
2019-05-14T10:48:29.118Z,5.50
2019-05-14T10:51:03.380Z,5.40
2019-05-14T10:53:28.944Z,5.30
2019-05-14T10:55:58.399Z,5.30
2019-05-14T10:58:29.106Z,5.30
2019-05-14T11:00:58.980Z,5.20
2019-05-14T11:03:30.032Z,5.20
2019-05-14T11:05:58.779Z,5.20
2019-05-14T11:08:29.569Z,5.20
2019-05-14T11:11:03.615Z,5.30
2019-05-14T11:13:29.408Z,5.30
2019-05-14T11:15:59.605Z,5.70
2019-05-14T11:18:29.233Z,5.80
2019-05-14T11:21:18.083Z,6.00
2019-05-14T11:23:29.748Z,6.10
2019-05-14T11:25:59.134Z,6.00
2019-05-14T11:28:28.682Z,5.90
2019-05-14T11:30:57.517Z,5.90
2019-05-14T11:33:29.524Z,5.50
2019-05-14T11:35:58.488Z,5.40
2019-05-14T11:38:33.832Z,5.20
2019-05-14T11:40:58.768Z,5.00
2019-05-14T11:43:28.645Z,5.20
2019-05-14T11:45:59.365Z,5.30
2019-05-14T11:48:27.805Z,5.50
2019-05-14T11:50:59.133Z,5.70
2019-05-14T11:53:45.910Z,5.80
2019-05-14T11:56:14.527Z,6.00
2019-05-14T11:58:43.191Z,5.90
2019-05-14T12:01:12.390Z,6.00
2019-05-14T12:03:40.993Z,6.10
2019-05-14T12:06:10.000Z,6.00
2019-05-14T12:08:41.763Z,6.10
2019-05-14T12:11:09.011Z,6.00
2019-05-14T12:13:39.461Z,5.90
2019-05-14T12:16:08.564Z,5.80
2019-05-14T12:18:41.342Z,5.80
2019-05-14T12:21:08.922Z,5.90
2019-05-14T12:23:39.376Z,5.70
2019-05-14T12:26:09.571Z,5.50
2019-05-14T12:28:38.797Z,5.50
2019-05-14T12:31:09.296Z,5.70
2019-05-14T12:33:39.536Z,5.80
2019-05-14T12:36:10.138Z,5.90
2019-05-14T12:38:38.954Z,5.90
2019-05-14T12:41:09.140Z,6.00
2019-05-14T12:43:39.723Z,5.90
2019-05-14T12:46:10.616Z,6.00
2019-05-14T12:48:39.427Z,6.10
2019-05-14T12:51:09.070Z,6.10
2019-05-14T12:53:39.393Z,6.20
2019-05-14T12:56:08.702Z,6.30
2019-05-14T12:58:44.617Z,6.40
2019-05-14T13:01:08.911Z,6.40
2019-05-14T13:03:38.152Z,6.20
2019-05-14T13:06:09.662Z,6.00
2019-05-14T13:08:38.680Z,5.90
2019-05-14T13:11:09.649Z,5.80
2019-05-14T13:13:42.298Z,5.60
2019-05-14T13:16:08.360Z,5.50
2019-05-14T13:18:38.761Z,5.50
2019-05-14T13:21:07.233Z,5.40
2019-05-14T13:23:38.118Z,5.50
2019-05-14T13:26:06.103Z,5.60
2019-05-14T13:28:34.769Z,5.60
2019-05-14T13:31:03.380Z,5.60
2019-05-14T13:33:31.973Z,5.60
2019-05-14T13:36:00.596Z,5.60
2019-05-14T13:38:29.273Z,5.70
2019-05-14T13:40:59.446Z,5.80
2019-05-14T13:43:30.547Z,6.00
2019-05-14T13:45:59.688Z,6.20
2019-05-14T13:48:29.680Z,6.40
2019-05-14T13:50:58.564Z,6.40
2019-05-14T13:53:29.602Z,6.40
2019-05-14T13:55:58.067Z,6.60
2019-05-14T13:58:28.636Z,6.50
2019-05-14T14:00:59.217Z,6.30
2019-05-14T14:03:29.226Z,6.10
2019-05-14T14:05:59.392Z,6.00
2019-05-14T14:08:29.248Z,5.90
2019-05-14T14:11:02.639Z,5.90
2019-05-14T14:13:28.565Z,5.90
2019-05-14T14:15:58.877Z,6.20
2019-05-14T14:18:29.333Z,6.30
2019-05-14T14:20:57.777Z,6.20
2019-05-14T14:23:30.394Z,6.00
2019-05-14T14:25:59.553Z,5.90
2019-05-14T14:28:28.497Z,6.00
2019-05-14T14:30:57.446Z,6.00
2019-05-14T14:33:28.726Z,6.20
2019-05-14T14:35:58.391Z,6.40
2019-05-14T14:38:29.163Z,6.40
2019-05-14T14:40:58.222Z,6.50
2019-05-14T14:43:29.208Z,6.30
2019-05-14T14:45:59.409Z,6.20
2019-05-14T14:48:30.366Z,6.10
2019-05-14T14:50:58.648Z,6.00
2019-05-14T14:53:42.878Z,6.10
2019-05-14T14:56:00.327Z,6.10
2019-05-14T14:58:31.001Z,6.10
2019-05-14T15:00:59.718Z,6.00
2019-05-14T15:03:30.031Z,6.10
2019-05-14T15:06:01.349Z,6.10
2019-05-14T15:08:30.023Z,6.10
2019-05-14T15:10:59.317Z,6.20
2019-05-14T15:13:28.186Z,6.30
2019-05-14T15:15:57.046Z,6.30
2019-05-14T15:18:25.607Z,6.20
2019-05-14T15:20:54.177Z,6.30
2019-05-14T15:23:22.787Z,6.50
2019-05-14T15:25:55.683Z,6.40
2019-05-14T15:28:24.200Z,6.20
2019-05-14T15:30:55.890Z,6.20
2019-05-14T15:33:24.437Z,6.10
2019-05-14T15:35:53.114Z,6.20
2019-05-14T15:38:21.862Z,6.20
2019-05-14T15:40:50.414Z,6.10
2019-05-14T15:43:19.071Z,6.00
2019-05-14T15:45:48.313Z,6.10
2019-05-14T15:48:19.695Z,6.10
2019-05-14T15:50:49.923Z,5.90
2019-05-14T15:53:19.489Z,5.90
2019-05-14T15:55:49.046Z,6.00
2019-05-14T15:58:21.381Z,5.90
2019-05-14T16:00:48.206Z,5.80
2019-05-14T16:03:18.652Z,5.80
2019-05-14T16:05:48.846Z,5.70
2019-05-14T16:08:22.190Z,5.70
2019-05-14T16:10:47.529Z,5.80
2019-05-14T16:13:16.096Z,5.60
2019-05-14T16:15:45.096Z,5.60
2019-05-14T16:18:18.700Z,5.60
2019-05-14T16:20:44.879Z,5.60
2019-05-14T16:23:13.489Z,5.60
2019-05-14T16:25:42.164Z,5.50
2019-05-14T16:28:10.717Z,5.50
2019-05-14T16:30:39.812Z,5.50
2019-05-14T16:33:09.306Z,5.50
2019-05-14T16:35:39.284Z,5.50
2019-05-14T16:38:08.458Z,5.50
2019-05-14T16:40:39.536Z,5.50
2019-05-14T16:43:07.410Z,5.40
2019-05-14T16:45:39.605Z,5.40
2019-05-14T16:48:10.859Z,5.40
2019-05-14T16:50:38.773Z,5.40
2019-05-14T16:53:11.339Z,5.30
2019-05-14T16:55:38.467Z,5.30
2019-05-14T16:58:08.970Z,5.30
2019-05-14T17:00:37.634Z,5.30
2019-05-14T17:03:08.271Z,5.20
2019-05-14T17:05:38.167Z,5.20
2019-05-14T17:08:09.920Z,5.20
2019-05-14T17:10:38.936Z,5.20
2019-05-14T17:13:09.106Z,5.20
2019-05-14T17:15:39.357Z,5.20
2019-05-14T17:18:08.872Z,5.20
2019-05-14T17:20:39.477Z,5.20
2019-05-14T17:23:09.075Z,5.20
2019-05-14T17:25:39.135Z,5.20
2019-05-14T17:28:08.502Z,5.20
2019-05-14T17:30:38.600Z,5.20
2019-05-14T17:33:09.565Z,5.20
2019-05-14T17:35:38.974Z,5.20
2019-05-14T17:38:09.223Z,5.20
2019-05-14T17:40:39.710Z,5.20
2019-05-14T17:43:08.743Z,5.10
2019-05-14T17:45:39.090Z,5.10
2019-05-14T17:48:08.370Z,5.20
2019-05-14T17:50:38.402Z,5.20
2019-05-14T17:53:09.726Z,5.20
2019-05-14T17:55:47.110Z,5.20
2019-05-14T17:58:13.162Z,5.10
2019-05-14T18:00:38.393Z,5.10
2019-05-14T18:03:08.719Z,5.10
2019-05-14T18:05:37.478Z,5.10
2019-05-14T18:08:06.086Z,5.10
2019-05-14T18:10:34.642Z,5.10
2019-05-14T18:13:03.335Z,5.10
2019-05-14T18:15:31.950Z,5.00
2019-05-14T18:18:00.551Z,4.90
2019-05-14T18:20:29.286Z,4.90
2019-05-14T18:22:58.438Z,4.90
2019-05-14T18:25:29.143Z,4.90
2019-05-14T18:27:57.395Z,4.90
2019-05-14T18:30:28.680Z,4.80
2019-05-14T18:32:58.410Z,4.80
2019-05-14T18:35:30.226Z,4.80
2019-05-14T18:37:58.852Z,4.80
2019-05-14T18:40:28.133Z,4.80
2019-05-14T18:42:59.081Z,4.80
2019-05-14T18:45:29.356Z,4.80
2019-05-14T18:47:59.099Z,4.80
2019-05-14T18:50:28.802Z,4.80
2019-05-14T18:52:59.787Z,4.80
2019-05-14T18:55:29.277Z,4.80
2019-05-14T18:57:59.310Z,4.80
2019-05-14T19:00:29.397Z,4.80
2019-05-14T19:02:58.387Z,4.80
2019-05-14T19:05:29.215Z,4.80
2019-05-14T19:07:59.307Z,4.80
2019-05-14T19:10:28.495Z,4.80
2019-05-14T19:12:58.806Z,4.70
2019-05-14T19:15:27.703Z,4.80
2019-05-14T19:18:00.458Z,4.70
2019-05-14T19:20:28.371Z,4.70
2019-05-14T19:22:57.174Z,4.70
2019-05-14T19:25:25.762Z,4.80
2019-05-14T19:27:58.160Z,4.70
2019-05-14T19:30:28.475Z,4.70
2019-05-14T19:32:56.602Z,4.70
2019-05-14T19:35:25.222Z,4.80
2019-05-14T19:37:54.308Z,4.70
2019-05-14T19:40:22.792Z,4.70
2019-05-14T19:42:51.438Z,4.70
2019-05-14T19:45:20.317Z,4.70
2019-05-14T19:47:49.334Z,4.70
2019-05-14T19:50:18.756Z,4.80
2019-05-14T19:52:48.744Z,4.70
2019-05-14T19:55:18.859Z,4.70
2019-05-14T19:57:49.038Z,4.70
2019-05-14T20:00:25.855Z,4.60
2019-05-14T20:02:54.417Z,4.70
2019-05-14T20:05:22.967Z,4.60
2019-05-14T20:07:51.533Z,4.60
2019-05-14T20:10:20.199Z,4.60
2019-05-14T20:12:48.780Z,4.50
2019-05-14T20:15:17.365Z,4.60
2019-05-14T20:17:46.007Z,4.60
2019-05-14T20:20:14.911Z,4.70
2019-05-14T20:22:44.536Z,4.50
2019-05-14T20:25:13.353Z,4.50
2019-05-14T20:27:42.312Z,4.60
2019-05-14T20:30:11.678Z,4.50
2019-05-14T20:32:40.233Z,4.50
2019-05-14T20:35:09.298Z,4.50
2019-05-14T20:37:38.900Z,4.50
2019-05-14T20:40:08.900Z,4.50
2019-05-14T20:42:39.323Z,4.50
2019-05-14T20:45:08.098Z,4.50
2019-05-14T20:47:38.749Z,4.50
2019-05-14T20:50:08.899Z,4.50
2019-05-14T20:52:37.926Z,4.50
2019-05-14T20:55:09.497Z,4.50
2019-05-14T20:57:38.597Z,4.50
2019-05-14T21:00:11.365Z,4.50
2019-05-14T21:02:39.520Z,4.50
2019-05-14T21:05:13.557Z,4.50
2019-05-14T21:07:40.169Z,4.40
2019-05-14T21:10:09.188Z,4.40
2019-05-14T21:12:39.399Z,4.40
2019-05-14T21:15:28.701Z,4.40
2019-05-14T21:17:59.564Z,4.40
2019-05-14T21:20:28.404Z,4.40
2019-05-14T21:22:58.449Z,4.30
2019-05-14T21:25:29.328Z,4.30
2019-05-14T21:27:58.735Z,4.30
2019-05-14T21:30:29.569Z,4.30
2019-05-14T21:33:00.144Z,4.30
2019-05-14T21:35:33.547Z,4.30
2019-05-14T21:38:02.118Z,4.30
2019-05-14T21:40:32.162Z,4.30
2019-05-14T21:43:00.887Z,4.30
2019-05-14T21:45:29.564Z,4.30
2019-05-14T21:47:59.445Z,4.30
2019-05-14T21:50:28.904Z,4.30
2019-05-14T21:52:59.705Z,4.30
2019-05-14T21:55:28.882Z,4.30
2019-05-14T21:57:57.693Z,4.30
2019-05-14T22:00:38.271Z,4.30
2019-05-14T22:03:06.117Z,4.20
2019-05-14T22:05:54.044Z,4.30
2019-05-14T22:08:22.648Z,4.20
2019-05-14T22:11:10.811Z,4.30
2019-05-14T22:13:39.812Z,4.20
2019-05-14T22:16:08.754Z,4.20
2019-05-14T22:18:38.905Z,4.30
2019-05-14T22:21:08.974Z,4.20
2019-05-14T22:23:38.792Z,4.20
2019-05-14T22:26:07.973Z,4.20
2019-05-14T22:28:37.415Z,4.20
2019-05-14T22:31:08.844Z,4.30
2019-05-14T22:33:38.257Z,4.20
2019-05-14T22:36:08.531Z,4.20
2019-05-14T22:38:38.741Z,4.20
2019-05-14T22:41:08.719Z,4.20
2019-05-14T22:43:38.380Z,4.20
2019-05-14T22:46:08.427Z,4.30
2019-05-14T22:48:37.151Z,4.20
2019-05-14T22:51:05.772Z,4.20
2019-05-14T22:53:34.362Z,4.20
2019-05-14T22:56:03.241Z,4.20
2019-05-14T22:58:31.886Z,4.20
2019-05-14T23:01:13.896Z,4.20
2019-05-14T23:03:30.718Z,4.20
2019-05-14T23:05:59.284Z,4.20
2019-05-14T23:08:27.902Z,4.20
2019-05-14T23:10:58.809Z,4.20
2019-05-14T23:13:28.070Z,4.20
2019-05-14T23:15:58.735Z,4.20
2019-05-14T23:18:28.744Z,4.20
2019-05-14T23:20:59.092Z,4.20
2019-05-14T23:23:29.267Z,4.20
2019-05-14T23:25:58.921Z,4.20
2019-05-14T23:28:39.533Z,4.20
2019-05-14T23:30:58.841Z,4.20
2019-05-14T23:33:28.819Z,4.20
2019-05-14T23:35:57.685Z,4.20
2019-05-14T23:38:28.815Z,4.30
2019-05-14T23:40:58.787Z,4.30
2019-05-14T23:43:28.795Z,4.20
2019-05-14T23:45:58.391Z,4.20
2019-05-14T23:48:27.064Z,4.20
2019-05-14T23:50:58.326Z,4.20
2019-05-14T23:53:26.456Z,4.20
2019-05-14T23:55:55.083Z,4.30
2019-05-14T23:58:23.778Z,4.20
